• Join FlightAware (Why Join?)
  • Login
  • US Flag 
07:19PM EDT


 

Airport Tracker/Info


-or-


 

Live Flight TrackerFlight Track Log ✈ N56SB ✈ 23-Jun-2013 ✈ KORL - KRYY

Flight Track Log - Related Links

Times and Time Zones

All times are in EDT time to prevent confusion due to time zone crossing. See the N56SB flight status page for this flight to view local times or setup timezone preferences in your user account.

Time Position Orientation Groundspeed Altitude Reporting Facility
EDT Latitude Longitude Course Direction KTS MPH feet Rate Location/Type
12:22PM 28.5500 -81.3167 41° Northeast 125 144 500  Level Orlando TRACON
12:23PM 28.5833 -81.2833 41° Northeast 186 214 1,500 720 Climbing Orlando TRACON
12:24PM 28.6167 -81.2333 53° Northeast 216 249 1,900 240 Climbing Orlando TRACON
12:25PM 28.6833 -81.2333 360° North 212 244 2,000 480 Climbing Orlando TRACON
12:26PM 28.7333 -81.2333 360° North 213 245 2,900 1,260 Climbing Orlando TRACON
12:27PM 28.7833 -81.2833 319° Northwest 256 295 4,600 1,740 Climbing Orlando TRACON
12:28PM 28.8333 -81.3500 311° West 241 277 6,500 2,520 Climbing Orlando TRACON
12:29PM 28.8833 -81.4000 319° Northwest 216 249 9,700 2,640 Climbing Orlando TRACON
12:30PM 28.9167 -81.4333 319° Northwest 200 230 11,800 1,740 Climbing Orlando TRACON
12:31PM 28.9836 -81.5086 315° West 231 266 14,000 1,380 Climbing Jacksonville Center
12:32PM 29.0383 -81.5672 317° Northwest 231 266 15,200 1,260 Climbing Jacksonville Center
12:34PM 29.1956 -81.6153 345° North 278 320 17,900 1,320 Climbing Jacksonville Center
12:35PM 29.2644 -81.6358 345° North 284 327 19,300 1,380 Climbing Jacksonville Center
12:36PM 29.3419 -81.6561 347° North 284 327 20,700 840 Climbing Jacksonville Center
12:37PM 29.4278 -81.6789 347° North 290 334 21,000 120 Climbing Jacksonville Center
12:38PM 29.5219 -81.7042 347° North 320 368 21,000  Level Jacksonville Center
12:39PM 29.6244 -81.7339 346° North 351 404 21,000 900 Level Jacksonville Center
12:40PM 29.7167 -81.7567 348° North 353 406 22,900 960 Climbing Jacksonville Center
12:41PM 29.8108 -81.7842 346° North 347 399 23,000  Climbing Jacksonville Center
12:42PM 29.9111 -81.8094 348° North 347 399 23,000  Level Jacksonville Center
12:43PM 30.0117 -81.8372 347° North 358 412 23,000 60 Level Jacksonville Center
12:44PM 30.1142 -81.8625 348° North 368 423 23,200 900 Climbing Jacksonville Center
12:45PM 30.2083 -81.8878 347° North 361 415 24,900 1,320 Climbing Jacksonville Center
12:47PM 30.3842 -81.9558 342° North 328 377 27,200 1,020 Climbing Jacksonville Center
12:48PM 30.4700 -81.9889 342° North 323 372 28,100 840 Climbing Jacksonville Center
12:49PM 30.5683 -82.0311 340° North 323 372 28,900 720 Climbing Jacksonville Center
12:50PM 30.6583 -82.0692 340° North 335 386 29,600 840 Climbing Jacksonville Center
12:51PM 30.7483 -82.1022 342° North 340 391 30,700 660 Climbing Jacksonville Center
12:52PM 30.8386 -82.1400 340° North 340 391 31,000 120 Climbing Jacksonville Center
12:53PM 30.9347 -82.1781 341° North 352 405 31,000  Level Jacksonville Center
12:54PM 31.0353 -82.2186 341° North 368 423 31,000  Level Jacksonville Center
12:55PM 31.1378 -82.2592 341° North 374 430 31,000  Level Jacksonville Center
12:56PM 31.2403 -82.2997 341° North 379 436 31,000 -60 Level Jacksonville Center
12:57PM 31.3406 -82.3403 341° North 379 436 30,900 -300 Descending Jacksonville Center
12:58PM 31.4472 -82.3789 343° North 384 442 30,400 -480 Descending Jacksonville Center
01:00PM 31.6278 -82.4511 341° North 402 463 29,700 -480 Descending Atlanta Center
01:01PM 31.7306 -82.4933 341° North 396 456 29,200 -360 Descending Atlanta Center
01:02PM 31.8272 -82.5331 341° North 396 456 29,000 -120 Descending Atlanta Center
01:03PM 31.9300 -82.5756 341° North 396 456 29,000  Level Atlanta Center
01:04PM 32.0328 -82.6131 343° North 390 449 29,000  Level Atlanta Center
01:05PM 32.1333 -82.6556 340° North 390 449 29,000 -120 Level Atlanta Center
01:06PM 32.2319 -82.6958 341° North 390 449 28,800 -360 Descending Atlanta Center
01:07PM 32.3367 -82.7383 341° North 390 449 28,300 -540 Descending Atlanta Center
01:08PM 32.4414 -82.7811 341° North 390 449 27,800 -540 Descending Atlanta Center
01:09PM 32.5442 -82.8242 341° North 390 449 27,300 -540 Descending Atlanta Center
01:10PM 32.6325 -82.9017 324° Northwest 384 442 26,800 -540 Descending Atlanta Center
01:11PM 32.7189 -82.9894 319° Northwest 397 457 26,300 -600 Descending Atlanta Center
01:12PM 32.8031 -83.0725 320° Northwest 397 457 25,700 -1,380 Descending Atlanta Center
01:13PM 32.8853 -83.1558 320° Northwest 392 451 23,600 -2,100 Descending Atlanta Center
01:14PM 32.9650 -83.2367 320° Northwest 386 444 21,600 -2,100 Descending Atlanta Center
01:15PM 33.0469 -83.3178 320° Northwest 386 444 19,500 -1,860 Descending Atlanta Center
01:16PM 33.1225 -83.4014 317° Northwest 380 437 17,900 -1,920 Descending Atlanta Center
01:17PM 33.1961 -83.4753 320° Northwest 356 410 15,700 -2,040 Descending Atlanta Center
01:18PM 33.2694 -83.5519 319° Northwest 349 402 13,900 -1,980 Descending Atlanta Center
01:19PM 33.3500 -83.6333 320° Northwest 338 389 11,800 -1,500 Descending Atlanta TRACON
01:20PM 33.4200 -83.6953 324° Northwest 329 379 11,000 -780 Descending Atlanta Center
01:21PM 33.4933 -83.7472 329° Northwest 309 356 10,300 -720 Descending Atlanta Center
01:22PM 33.5644 -83.7969 330° Northwest 300 345 9,600 -720 Descending Atlanta Center
01:23PM 33.6417 -83.8342 338° Northwest 295 339 8,900 -720 Descending Atlanta Center
01:24PM 33.7272 -83.8539 349° North 295 339 8,200 -720 Descending Atlanta Center
01:25PM 33.8086 -83.8789 346° North 300 345 7,500 -720 Descending Atlanta Center
01:26PM 33.8833 -83.9167 337° Northwest 302 348 6,800 -720 Descending Atlanta TRACON
01:27PM 33.9333 -83.9833 312° West 291 335 6,100 -420 Descending Atlanta TRACON
01:28PM 33.9833 -84.0500 312° West 292 336 6,000 -60 Descending Atlanta TRACON
01:29PM 34.0333 -84.1333 306° West 287 330 6,000  Level Atlanta TRACON
01:30PM 34.0500 -84.2167 284° West 273 314 6,000  Level Atlanta TRACON
01:31PM 34.0667 -84.3000 284° West 241 277 6,000 -420 Level Atlanta TRACON
01:32PM 34.1000 -84.3667 301° West 247 284 5,200 -1,260 Descending Atlanta TRACON
01:33PM 34.1000 -84.4500 270° West 235 270 3,500 -1,380 Descending Atlanta TRACON
01:34PM 34.0667 -84.5167 239° Southwest 209 241 2,500 -600 Descending Atlanta TRACON
01:35PM 34.0500 -84.5667 248° West 174 200 2,300 -300 Descending Atlanta TRACON
01:36PM 34.0500 -84.6167 270° West 185 213 2,000 -240 Descending Atlanta TRACON
01:37PM 34.0167 -84.6667 231° Southwest 127 146 1,900 -120 Descending Atlanta TRACON